createdAt,value
2018-09-06T00:00:54.388Z,13.23
2018-09-06T00:03:21.402Z,12.53
2018-09-06T00:05:48.433Z,14.30
2018-09-06T00:08:15.442Z,12.63
2018-09-06T00:10:42.441Z,12.30
2018-09-06T00:13:10.342Z,16.80
2018-09-06T00:15:38.298Z,12.87
2018-09-06T00:18:05.307Z,13.93
2018-09-06T00:20:32.448Z,13.13
2018-09-06T00:22:59.559Z,12.80
2018-09-06T00:25:26.557Z,12.17
2018-09-06T00:27:53.596Z,12.40
2018-09-06T00:30:20.683Z,13.47
2018-09-06T00:32:47.699Z,11.43
2018-09-06T00:35:14.753Z,14.67
2018-09-06T00:40:20.369Z,12.77
2018-09-06T00:42:48.233Z,13.67
2018-09-06T00:45:15.235Z,12.97
2018-09-06T00:47:43.136Z,10.27
2018-09-06T00:50:10.169Z,13.73
2018-09-06T00:52:37.179Z,14.73
2018-09-06T00:55:04.222Z,11.67
2018-09-06T00:57:32.185Z,11.03
2018-09-06T00:59:59.942Z,12.37
2018-09-06T01:02:26.987Z,10.73
2018-09-06T01:04:53.996Z,13.50
2018-09-06T01:07:20.988Z,12.93
2018-09-06T01:09:48.036Z,16.13
2018-09-06T01:12:15.038Z,10.37
2018-09-06T01:14:42.037Z,13.73
2018-09-06T01:17:09.095Z,14.30
2018-09-06T01:19:36.086Z,10.90
2018-09-06T01:22:03.090Z,13.53
2018-09-06T01:24:30.120Z,13.57
2018-09-06T01:26:57.120Z,14.20
2018-09-06T01:29:24.136Z,13.47
2018-09-06T01:31:51.183Z,12.27
2018-09-06T01:34:18.199Z,15.07
2018-09-06T01:36:46.056Z,13.87
2018-09-06T01:39:13.960Z,12.90
2018-09-06T01:41:41.913Z,14.80
2018-09-06T01:44:08.937Z,11.27
2018-09-06T01:46:35.988Z,14.57
2018-09-06T01:49:02.986Z,11.80
2018-09-06T01:51:29.988Z,10.30
2018-09-06T01:53:57.030Z,11.27
2018-09-06T01:59:04.562Z,13.27
2018-09-06T02:01:32.556Z,13.70
2018-09-06T02:03:59.558Z,14.90
2018-09-06T02:06:26.594Z,12.77
2018-09-06T02:08:53.605Z,13.20
2018-09-06T02:11:20.609Z,13.53
2018-09-06T02:13:48.399Z,15.47
2018-09-06T02:16:16.351Z,17.00
2018-09-06T02:18:44.213Z,14.80
2018-09-06T02:21:11.260Z,13.10
2018-09-06T02:23:38.305Z,15.53
2018-09-06T02:26:05.311Z,13.50
2018-09-06T02:28:32.372Z,15.43
2018-09-06T02:30:59.385Z,14.63
2018-09-06T02:33:26.382Z,13.07
2018-09-06T02:35:53.452Z,13.67
2018-09-06T02:38:20.449Z,16.47
2018-09-06T02:40:47.448Z,13.57
2018-09-06T02:43:14.481Z,14.30
2018-09-06T02:45:41.495Z,16.07
2018-09-06T02:48:08.501Z,14.17
2018-09-06T02:50:35.552Z,14.17
2018-09-06T02:53:02.954Z,15.57
2018-09-06T02:55:29.877Z,15.03
2018-09-06T02:57:56.901Z,14.27
2018-09-06T03:00:23.897Z,14.23
2018-09-06T03:02:50.893Z,17.27
2018-09-06T03:05:21.907Z,12.17
2018-09-06T03:07:49.008Z,14.53
2018-09-06T03:10:16.034Z,15.30
2018-09-06T03:12:43.935Z,12.73
2018-09-06T03:17:51.446Z,15.75
2018-09-06T03:20:18.446Z,12.97
2018-09-06T03:22:46.176Z,13.90
2018-09-06T03:25:14.174Z,12.77
2018-09-06T03:27:41.192Z,17.17
2018-09-06T03:30:08.283Z,12.60
2018-09-06T03:32:35.326Z,14.70
2018-09-06T03:35:03.069Z,14.67
2018-09-06T03:37:30.089Z,17.13
2018-09-06T03:39:57.212Z,13.23
2018-09-06T03:42:25.171Z,15.40
2018-09-06T03:44:52.192Z,13.10
2018-09-06T03:47:19.240Z,14.93
2018-09-06T03:49:46.241Z,14.27
2018-09-06T03:52:13.268Z,13.53
2018-09-06T03:54:41.254Z,13.80
2018-09-06T03:57:08.255Z,13.07
2018-09-06T03:59:35.259Z,13.97
2018-09-06T04:02:02.310Z,16.73
2018-09-06T04:04:29.320Z,13.80
2018-09-06T04:09:38.528Z,15.13
2018-09-06T04:12:05.541Z,12.77
2018-09-06T04:14:32.630Z,14.87
2018-09-06T04:16:59.658Z,12.53
2018-09-06T04:19:26.654Z,15.13
2018-09-06T04:21:53.665Z,13.70
2018-09-06T04:24:20.789Z,16.53
2018-09-06T04:26:47.710Z,16.50
2018-09-06T04:29:14.709Z,13.27
2018-09-06T04:31:41.754Z,12.33
2018-09-06T04:34:08.761Z,14.90
2018-09-06T04:36:35.756Z,12.53
2018-09-06T04:39:02.790Z,11.40
2018-09-06T04:41:29.783Z,10.33
2018-09-06T04:43:56.903Z,11.93
2018-09-06T04:46:23.935Z,11.37
2018-09-06T04:48:50.938Z,14.57
2018-09-06T04:51:17.937Z,12.87
2018-09-06T04:53:44.973Z,12.10
2018-09-06T04:56:11.988Z,14.70
2018-09-06T04:58:39.060Z,12.67
2018-09-06T05:01:06.046Z,14.77
2018-09-06T05:03:33.133Z,12.97
2018-09-06T05:06:00.974Z,14.93
2018-09-06T05:08:28.012Z,12.10
2018-09-06T05:10:55.018Z,15.27
2018-09-06T05:13:22.030Z,14.40
2018-09-06T05:15:49.073Z,15.30
2018-09-06T05:18:16.086Z,12.83
2018-09-06T05:20:43.224Z,13.73
2018-09-06T05:23:11.044Z,13.97
2018-09-06T05:28:16.602Z,12.65
2018-09-06T05:30:44.626Z,12.17
2018-09-06T05:33:12.341Z,12.73
2018-09-06T05:35:38.887Z,13.20
2018-09-06T05:38:05.906Z,16.80
2018-09-06T05:40:32.903Z,13.53
2018-09-06T05:42:59.949Z,14.47
2018-09-06T05:45:27.002Z,13.63
2018-09-06T05:47:54.352Z,22.67
2018-09-06T05:50:21.396Z,12.53
2018-09-06T05:52:48.408Z,15.30
2018-09-06T05:55:15.425Z,15.03
2018-09-06T05:57:42.476Z,20.40
2018-09-06T06:00:09.579Z,17.33
2018-09-06T06:02:37.365Z,18.37
2018-09-06T06:05:05.368Z,14.83
2018-09-06T06:07:33.107Z,14.67
2018-09-06T06:10:00.130Z,14.63
2018-09-06T06:12:27.179Z,14.40
2018-09-06T06:14:54.296Z,12.37
2018-09-06T06:17:21.299Z,11.07
2018-09-06T06:19:48.579Z,15.27
2018-09-06T06:22:15.935Z,18.23
2018-09-06T06:24:42.829Z,13.40
2018-09-06T06:27:09.896Z,12.17
2018-09-06T06:29:36.908Z,13.43
2018-09-06T06:32:04.020Z,13.93
2018-09-06T06:34:31.033Z,14.40
2018-09-06T06:36:58.064Z,14.40
2018-09-06T06:39:25.686Z,11.93
2018-09-06T06:41:52.758Z,12.37
2018-09-06T06:46:58.261Z,16.62
2018-09-06T06:49:25.279Z,13.77
2018-09-06T06:51:53.255Z,13.53
2018-09-06T06:54:20.306Z,13.10
2018-09-06T06:56:47.314Z,16.33
2018-09-06T06:59:14.316Z,11.93
2018-09-06T07:01:41.359Z,10.60
2018-09-06T07:04:08.424Z,11.17
2018-09-06T07:06:35.369Z,8.33
2018-09-06T07:09:02.421Z,8.40
2018-09-06T07:11:29.424Z,9.07
2018-09-06T07:13:56.438Z,9.10
2018-09-06T07:16:23.488Z,9.43
2018-09-06T07:18:50.579Z,8.53
2018-09-06T07:21:18.407Z,9.00
2018-09-06T07:26:23.893Z,8.77
2018-09-06T07:28:50.958Z,7.33
2018-09-06T07:31:18.245Z,5.77
2018-09-06T07:33:45.020Z,6.83
2018-09-06T07:36:12.074Z,7.93
2018-09-06T07:38:39.066Z,7.97
2018-09-06T07:41:06.089Z,7.80
2018-09-06T07:43:33.115Z,8.93
2018-09-06T07:46:01.074Z,7.03
2018-09-06T07:48:28.952Z,8.63
2018-09-06T07:50:56.814Z,7.27
2018-09-06T07:53:23.814Z,8.20
2018-09-06T07:55:50.805Z,8.73
2018-09-06T07:58:17.837Z,6.13
2018-09-06T08:00:44.843Z,6.73
2018-09-06T08:03:12.739Z,14.53
2018-09-06T08:05:39.775Z,7.97
2018-09-06T08:08:06.785Z,11.57
2018-09-06T08:10:33.779Z,7.10
2018-09-06T08:13:00.804Z,8.67
2018-09-06T08:15:27.806Z,6.43
2018-09-06T08:17:54.807Z,6.33
2018-09-06T08:20:21.837Z,8.17
2018-09-06T08:22:48.833Z,6.50
2018-09-06T08:27:54.347Z,8.30
2018-09-06T08:30:21.358Z,7.40
2018-09-06T08:32:48.348Z,6.17
2018-09-06T08:35:15.368Z,7.90
2018-09-06T08:37:42.367Z,4.90
2018-09-06T08:40:09.364Z,7.90
2018-09-06T08:42:36.415Z,6.87
2018-09-06T08:45:03.480Z,9.97
2018-09-06T08:47:30.582Z,7.63
2018-09-06T19:13:55.598Z,4.50
2018-09-06T19:16:22.697Z,4.43
2018-09-06T19:18:49.636Z,4.63
2018-09-06T19:21:19.864Z,3.30
2018-09-06T19:23:48.665Z,3.13
2018-09-06T19:26:16.892Z,2.40
